N878SA KVRB-KORL
Flight info
| Callsign | N878SA |
|---|---|
| Flight time | 0h 51m |
| Altitude | 8000 |
| Route | BLDOG BAIRN |
| Aircraft | BE36/L-VGD/C |
Departure
| Time | 2026-05-04 23:26 |
|---|---|
| Airport | Vero Beach Regional Airport (KVRB) |
Arrival
| Time | 2026-05-05 00:18 |
|---|---|
| Airport | Orlando Executive Airport (KORL) |
| Time | Latitude | Longitude | Altitude | Speed | Heading |
|---|---|---|---|---|---|
| 2026-05-04 23:06 | 27.65279 | -80.41898 | 25 ft | 0 kts | 289° |
| 2026-05-04 23:20 | 27.65289 | -80.41913 | 29 ft | 6 kts | 340° |
| 2026-05-04 23:20 | 27.65325 | -80.41914 | 26 ft | 10 kts | 326° |
| 2026-05-04 23:20 | 27.65352 | -80.41987 | 27 ft | 10 kts | 289° |
| 2026-05-04 23:21 | 27.65377 | -80.42058 | 25 ft | 9 kts | 291° |
| 2026-05-04 23:21 | 27.65397 | -80.42119 | 25 ft | 8 kts | 291° |
| 2026-05-04 23:21 | 27.65381 | -80.42173 | 27 ft | 9 kts | 215° |
| 2026-05-04 23:21 | 27.65336 | -80.42210 | 25 ft | 7 kts | 216° |
| 2026-05-04 23:22 | 27.65299 | -80.42241 | 26 ft | 6 kts | 216° |
| 2026-05-04 23:22 | 27.65268 | -80.42267 | 26 ft | 5 kts | 217° |
| 2026-05-04 23:22 | 27.65228 | -80.42305 | 26 ft | 11 kts | 234° |
| 2026-05-04 23:22 | 27.65157 | -80.42376 | 26 ft | 16 kts | 217° |
| 2026-05-04 23:23 | 27.65060 | -80.42454 | 26 ft | 15 kts | 217° |
| 2026-05-04 23:23 | 27.64990 | -80.42514 | 26 ft | 11 kts | 216° |
| 2026-05-04 23:23 | 27.64942 | -80.42554 | 26 ft | 0 kts | 214° |
| 2026-05-04 23:25 | 27.64939 | -80.42557 | 26 ft | 2 kts | 214° |
| 2026-05-04 23:25 | 27.64926 | -80.42582 | 27 ft | 3 kts | 272° |
| 2026-05-04 23:25 | 27.64949 | -80.42628 | 27 ft | 15 kts | 306° |
| 2026-05-04 23:25 | 27.64977 | -80.42661 | 28 ft | 0 kts | 8° |
| 2026-05-04 23:26 | 27.65041 | -80.42609 | 28 ft | 37 kts | 37° |
| 2026-05-04 23:26 | 27.65423 | -80.42289 | 93 ft | 89 kts | 36° |
| 2026-05-04 23:26 | 27.65946 | -80.41878 | 382 ft | 95 kts | 37° |
| 2026-05-04 23:26 | 27.66466 | -80.41451 | 663 ft | 89 kts | 37° |
| 2026-05-04 23:27 | 27.66972 | -80.41061 | 990 ft | 89 kts | 36° |
| 2026-05-04 23:27 | 27.67488 | -80.40678 | 1254 ft | 88 kts | 40° |
| 2026-05-04 23:27 | 27.68037 | -80.40377 | 1512 ft | 94 kts | 15° |
| 2026-05-04 23:27 | 27.68671 | -80.40720 | 1761 ft | 118 kts | 316° |
| 2026-05-04 23:28 | 27.69143 | -80.41489 | 2053 ft | 118 kts | 314° |
| 2026-05-04 23:28 | 27.69608 | -80.42237 | 2336 ft | 119 kts | 313° |
| 2026-05-04 23:28 | 27.70081 | -80.43004 | 2618 ft | 118 kts | 313° |
| 2026-05-04 23:28 | 27.70551 | -80.43756 | 2888 ft | 117 kts | 313° |
| 2026-05-04 23:29 | 27.71035 | -80.44490 | 3151 ft | 117 kts | 313° |
| 2026-05-04 23:29 | 27.71495 | -80.45257 | 3385 ft | 120 kts | 295° |
| 2026-05-04 23:29 | 27.71769 | -80.46150 | 3740 ft | 119 kts | 292° |
| 2026-05-04 23:29 | 27.72069 | -80.47009 | 4123 ft | 117 kts | 291° |
| 2026-05-04 23:30 | 27.72359 | -80.47854 | 4535 ft | 115 kts | 289° |
| 2026-05-04 23:30 | 27.72654 | -80.48687 | 4930 ft | 113 kts | 288° |
| 2026-05-04 23:30 | 27.72943 | -80.49495 | 5320 ft | 110 kts | 288° |
| 2026-05-04 23:30 | 27.73224 | -80.50286 | 5687 ft | 107 kts | 288° |
| 2026-05-04 23:31 | 27.73497 | -80.51061 | 6044 ft | 106 kts | 287° |
| 2026-05-04 23:31 | 27.73769 | -80.51826 | 6375 ft | 104 kts | 288° |
| 2026-05-04 23:31 | 27.74038 | -80.52575 | 6692 ft | 102 kts | 287° |
| 2026-05-04 23:31 | 27.74298 | -80.53317 | 6981 ft | 102 kts | 287° |
| 2026-05-04 23:32 | 27.74561 | -80.54059 | 7244 ft | 102 kts | 287° |
| 2026-05-04 23:32 | 27.74823 | -80.54798 | 7517 ft | 101 kts | 287° |
| 2026-05-04 23:32 | 27.75086 | -80.55535 | 7787 ft | 101 kts | 287° |
| 2026-05-04 23:32 | 27.75346 | -80.56274 | 8052 ft | 101 kts | 287° |
| 2026-05-04 23:33 | 27.75612 | -80.57019 | 8306 ft | 103 kts | 287° |
| 2026-05-04 23:33 | 27.75874 | -80.57764 | 8597 ft | 102 kts | 287° |
| 2026-05-04 23:33 | 27.76140 | -80.58511 | 8863 ft | 103 kts | 286° |
| 2026-05-04 23:33 | 27.76413 | -80.59287 | 9001 ft | 115 kts | 287° |
| 2026-05-04 23:34 | 27.76729 | -80.60187 | 9011 ft | 131 kts | 288° |
| 2026-05-04 23:34 | 27.77084 | -80.61188 | 9011 ft | 143 kts | 288° |
| 2026-05-04 23:34 | 27.77465 | -80.62261 | 9010 ft | 149 kts | 288° |
| 2026-05-04 23:34 | 27.77855 | -80.63361 | 9013 ft | 152 kts | 288° |
| 2026-05-04 23:35 | 27.78253 | -80.64482 | 9010 ft | 155 kts | 288° |
| 2026-05-04 23:35 | 27.78654 | -80.65616 | 9005 ft | 156 kts | 288° |
| 2026-05-04 23:35 | 27.79052 | -80.66739 | 9007 ft | 157 kts | 288° |
| 2026-05-04 23:35 | 27.79459 | -80.67889 | 9008 ft | 157 kts | 288° |
| 2026-05-04 23:36 | 27.79865 | -80.69037 | 9011 ft | 157 kts | 288° |
| 2026-05-04 23:36 | 27.80271 | -80.70188 | 9004 ft | 158 kts | 288° |
| 2026-05-04 23:36 | 27.80678 | -80.71340 | 9009 ft | 158 kts | 288° |
| 2026-05-04 23:36 | 27.81085 | -80.72490 | 9008 ft | 158 kts | 288° |
| 2026-05-04 23:37 | 27.81490 | -80.73640 | 9006 ft | 158 kts | 288° |
| 2026-05-04 23:37 | 27.81896 | -80.74791 | 9006 ft | 157 kts | 288° |
| 2026-05-04 23:37 | 27.82300 | -80.75936 | 9008 ft | 157 kts | 288° |
| 2026-05-04 23:37 | 27.82699 | -80.77066 | 9007 ft | 157 kts | 289° |
| 2026-05-04 23:38 | 27.83103 | -80.78213 | 9006 ft | 157 kts | 288° |
| 2026-05-04 23:38 | 27.83507 | -80.79359 | 9007 ft | 157 kts | 288° |
| 2026-05-04 23:38 | 27.83912 | -80.80507 | 9006 ft | 157 kts | 288° |
| 2026-05-04 23:38 | 27.84317 | -80.81656 | 9005 ft | 158 kts | 288° |
| 2026-05-04 23:39 | 27.84723 | -80.82809 | 9006 ft | 158 kts | 288° |
| 2026-05-04 23:39 | 27.85128 | -80.83960 | 9002 ft | 157 kts | 288° |
| 2026-05-04 23:39 | 27.85532 | -80.85109 | 9005 ft | 157 kts | 288° |
| 2026-05-04 23:39 | 27.85935 | -80.86254 | 9004 ft | 157 kts | 289° |
| 2026-05-04 23:40 | 27.86338 | -80.87399 | 9004 ft | 157 kts | 289° |
| 2026-05-04 23:40 | 27.86741 | -80.88546 | 9004 ft | 157 kts | 288° |
| 2026-05-04 23:40 | 27.87144 | -80.89692 | 9005 ft | 157 kts | 288° |
| 2026-05-04 23:40 | 27.87548 | -80.90841 | 9002 ft | 157 kts | 288° |
| 2026-05-04 23:41 | 27.87951 | -80.91990 | 9003 ft | 157 kts | 288° |
| 2026-05-04 23:41 | 27.88354 | -80.93137 | 9005 ft | 157 kts | 288° |
| 2026-05-04 23:41 | 27.88758 | -80.94288 | 9005 ft | 157 kts | 289° |
| 2026-05-04 23:41 | 27.89162 | -80.95439 | 8987 ft | 158 kts | 289° |
| 2026-05-04 23:42 | 27.89566 | -80.96591 | 8984 ft | 157 kts | 288° |
| 2026-05-04 23:42 | 27.89964 | -80.97725 | 8984 ft | 157 kts | 288° |
| 2026-05-04 23:42 | 27.90366 | -80.98873 | 8985 ft | 157 kts | 288° |
| 2026-05-04 23:42 | 27.90769 | -81.00022 | 8985 ft | 157 kts | 289° |
| 2026-05-04 23:43 | 27.91170 | -81.01168 | 8984 ft | 157 kts | 288° |
| 2026-05-04 23:43 | 27.91574 | -81.02320 | 8988 ft | 157 kts | 288° |
| 2026-05-04 23:43 | 27.91978 | -81.03471 | 8990 ft | 158 kts | 288° |
| 2026-05-04 23:43 | 27.92380 | -81.04621 | 8988 ft | 157 kts | 289° |
| 2026-05-04 23:44 | 27.92782 | -81.05770 | 8987 ft | 157 kts | 288° |
| 2026-05-04 23:44 | 27.93182 | -81.06914 | 8987 ft | 156 kts | 288° |
| 2026-05-04 23:44 | 27.93582 | -81.08059 | 8986 ft | 156 kts | 289° |
| 2026-05-04 23:44 | 27.93982 | -81.09201 | 8983 ft | 156 kts | 288° |
| 2026-05-04 23:45 | 27.94393 | -81.10337 | 8985 ft | 156 kts | 293° |
| 2026-05-04 23:45 | 27.95063 | -81.11314 | 8986 ft | 161 kts | 314° |
| 2026-05-04 23:45 | 27.96028 | -81.11975 | 8988 ft | 166 kts | 334° |
| 2026-05-04 23:45 | 27.97129 | -81.12378 | 8991 ft | 167 kts | 336° |
| 2026-05-04 23:46 | 27.98215 | -81.12793 | 8989 ft | 167 kts | 336° |
| 2026-05-04 23:46 | 27.99316 | -81.13207 | 8991 ft | 167 kts | 336° |
| 2026-05-04 23:46 | 28.00421 | -81.13621 | 8993 ft | 167 kts | 336° |
| 2026-05-04 23:46 | 28.01524 | -81.14034 | 8991 ft | 167 kts | 336° |
| 2026-05-04 23:47 | 28.02630 | -81.14449 | 8994 ft | 168 kts | 336° |
| 2026-05-04 23:47 | 28.03742 | -81.14865 | 8911 ft | 170 kts | 337° |
| 2026-05-04 23:47 | 28.04865 | -81.15288 | 8661 ft | 170 kts | 336° |
| 2026-05-04 23:47 | 28.05982 | -81.15706 | 8413 ft | 168 kts | 336° |
| 2026-05-04 23:48 | 28.07084 | -81.16119 | 8168 ft | 166 kts | 336° |
| 2026-05-04 23:48 | 28.08178 | -81.16531 | 7920 ft | 165 kts | 337° |
| 2026-05-04 23:48 | 28.09268 | -81.16939 | 7673 ft | 165 kts | 336° |
| 2026-05-04 23:48 | 28.10354 | -81.17348 | 7434 ft | 165 kts | 337° |
| 2026-05-04 23:49 | 28.11443 | -81.17757 | 7198 ft | 165 kts | 336° |
| 2026-05-04 23:49 | 28.12529 | -81.18166 | 6962 ft | 165 kts | 337° |
| 2026-05-04 23:49 | 28.13580 | -81.18648 | 6727 ft | 160 kts | 318° |
| 2026-05-04 23:49 | 28.14129 | -81.19675 | 6451 ft | 152 kts | 277° |
| 2026-05-04 23:50 | 28.13997 | -81.20838 | 6202 ft | 150 kts | 253° |
| 2026-05-04 23:50 | 28.13718 | -81.21976 | 5956 ft | 150 kts | 253° |
| 2026-05-04 23:50 | 28.13435 | -81.23106 | 5709 ft | 152 kts | 253° |
| 2026-05-04 23:50 | 28.13144 | -81.24262 | 5470 ft | 153 kts | 253° |
| 2026-05-04 23:51 | 28.12850 | -81.25428 | 5225 ft | 155 kts | 253° |
| 2026-05-04 23:51 | 28.12543 | -81.26601 | 4984 ft | 157 kts | 253° |
| 2026-05-04 23:51 | 28.12229 | -81.27789 | 4737 ft | 158 kts | 253° |
| 2026-05-04 23:51 | 28.11940 | -81.29000 | 4482 ft | 161 kts | 259° |
| 2026-05-04 23:52 | 28.11803 | -81.30276 | 4233 ft | 165 kts | 263° |
| 2026-05-04 23:52 | 28.11678 | -81.31580 | 4010 ft | 167 kts | 263° |
| 2026-05-04 23:52 | 28.11557 | -81.32883 | 4006 ft | 168 kts | 263° |
| 2026-05-04 23:52 | 28.11433 | -81.34211 | 4005 ft | 170 kts | 263° |
| 2026-05-04 23:53 | 28.11309 | -81.35548 | 4005 ft | 171 kts | 263° |
| 2026-05-04 23:53 | 28.11179 | -81.36891 | 4002 ft | 172 kts | 263° |
| 2026-05-04 23:53 | 28.11048 | -81.38237 | 4006 ft | 172 kts | 263° |
| 2026-05-04 23:53 | 28.10915 | -81.39591 | 4006 ft | 173 kts | 263° |
| 2026-05-04 23:54 | 28.10784 | -81.40938 | 4001 ft | 174 kts | 263° |
| 2026-05-04 23:54 | 28.10655 | -81.42298 | 4004 ft | 174 kts | 263° |
| 2026-05-04 23:54 | 28.10525 | -81.43657 | 4006 ft | 174 kts | 263° |
| 2026-05-04 23:54 | 28.10392 | -81.45017 | 4002 ft | 173 kts | 263° |
| 2026-05-04 23:55 | 28.10258 | -81.46379 | 3999 ft | 174 kts | 263° |
| 2026-05-04 23:55 | 28.10351 | -81.47715 | 3991 ft | 172 kts | 296° |
| 2026-05-04 23:55 | 28.12317 | -81.48867 | 4004 ft | 164 kts | 352° |
| 2026-05-04 23:56 | 28.13443 | -81.49102 | 4007 ft | 164 kts | 353° |
| 2026-05-04 23:56 | 28.14573 | -81.49338 | 4007 ft | 165 kts | 352° |
| 2026-05-04 23:56 | 28.15649 | -81.49835 | 3862 ft | 169 kts | 333° |
| 2026-05-04 23:56 | 28.16667 | -81.50497 | 3647 ft | 169 kts | 333° |
| 2026-05-04 23:57 | 28.17681 | -81.51169 | 3424 ft | 169 kts | 333° |
| 2026-05-04 23:57 | 28.18687 | -81.51851 | 3198 ft | 168 kts | 333° |
| 2026-05-04 23:57 | 28.19684 | -81.52536 | 3008 ft | 165 kts | 333° |
| 2026-05-04 23:57 | 28.20619 | -81.53186 | 3000 ft | 156 kts | 334° |
| 2026-05-04 23:58 | 28.21578 | -81.53845 | 2999 ft | 165 kts | 333° |
| 2026-05-04 23:58 | 28.22574 | -81.54528 | 3004 ft | 169 kts | 333° |
| 2026-05-04 23:58 | 28.23586 | -81.55227 | 3011 ft | 172 kts | 333° |
| 2026-05-04 23:58 | 28.24617 | -81.55925 | 3007 ft | 174 kts | 333° |
| 2026-05-04 23:59 | 28.25661 | -81.56627 | 3008 ft | 175 kts | 333° |
| 2026-05-04 23:59 | 28.26707 | -81.57334 | 3002 ft | 175 kts | 333° |
| 2026-05-04 23:59 | 28.27754 | -81.58044 | 3003 ft | 175 kts | 334° |
| 2026-05-04 23:59 | 28.28797 | -81.58750 | 3001 ft | 175 kts | 333° |
| 2026-05-05 00:00 | 28.29843 | -81.59461 | 3004 ft | 175 kts | 332° |
| 2026-05-05 00:00 | 28.30193 | -81.59701 | 3006 ft | 175 kts | 333° |
| 2026-05-05 00:00 | 28.31786 | -81.61077 | 2998 ft | 179 kts | 300° |
| 2026-05-05 00:00 | 28.31944 | -81.62440 | 2991 ft | 173 kts | 258° |
| 2026-05-05 00:01 | 28.31604 | -81.63666 | 2983 ft | 159 kts | 244° |
| 2026-05-05 00:01 | 28.31176 | -81.64783 | 2988 ft | 152 kts | 244° |
| 2026-05-05 00:01 | 28.30755 | -81.65870 | 2993 ft | 149 kts | 243° |
| 2026-05-05 00:01 | 28.30344 | -81.66945 | 2993 ft | 147 kts | 243° |
| 2026-05-05 00:02 | 28.29936 | -81.68006 | 2989 ft | 146 kts | 243° |
| 2026-05-05 00:02 | 28.29522 | -81.69060 | 2990 ft | 145 kts | 243° |
| 2026-05-05 00:02 | 28.29125 | -81.70114 | 2991 ft | 145 kts | 244° |
| 2026-05-05 00:02 | 28.28719 | -81.71160 | 2985 ft | 144 kts | 243° |
| 2026-05-05 00:03 | 28.28624 | -81.72272 | 2983 ft | 146 kts | 292° |
| 2026-05-05 00:03 | 28.29302 | -81.73052 | 2979 ft | 139 kts | 334° |
| 2026-05-05 00:03 | 28.30132 | -81.73628 | 2986 ft | 140 kts | 332° |
| 2026-05-05 00:03 | 28.30951 | -81.74210 | 2987 ft | 138 kts | 333° |
| 2026-05-05 00:04 | 28.31765 | -81.74793 | 2988 ft | 139 kts | 333° |
| 2026-05-05 00:04 | 28.32607 | -81.75371 | 2991 ft | 142 kts | 338° |
| 2026-05-05 00:04 | 28.33511 | -81.75414 | 2989 ft | 128 kts | 30° |
| 2026-05-05 00:04 | 28.34300 | -81.74944 | 2997 ft | 129 kts | 33° |
| 2026-05-05 00:05 | 28.35106 | -81.74463 | 2995 ft | 132 kts | 33° |
| 2026-05-05 00:05 | 28.35922 | -81.73980 | 3002 ft | 132 kts | 33° |
| 2026-05-05 00:05 | 28.36736 | -81.73490 | 2994 ft | 132 kts | 34° |
| 2026-05-05 00:05 | 28.37555 | -81.73000 | 2791 ft | 130 kts | 32° |
| 2026-05-05 00:06 | 28.38329 | -81.72518 | 2586 ft | 122 kts | 44° |
| 2026-05-05 00:06 | 28.38899 | -81.71847 | 2390 ft | 116 kts | 53° |
| 2026-05-05 00:06 | 28.39431 | -81.71174 | 2186 ft | 114 kts | 53° |
| 2026-05-05 00:06 | 28.39776 | -81.70733 | 2050 ft | 112 kts | 57° |
| 2026-05-05 00:07 | 28.40151 | -81.69703 | 1996 ft | 107 kts | 72° |
| 2026-05-05 00:07 | 28.40421 | -81.68906 | 1996 ft | 111 kts | 72° |
| 2026-05-05 00:07 | 28.40703 | -81.68065 | 2001 ft | 117 kts | 72° |
| 2026-05-05 00:07 | 28.41012 | -81.67195 | 2004 ft | 121 kts | 64° |
| 2026-05-05 00:08 | 28.41323 | -81.66645 | 2005 ft | 123 kts | 60° |
| 2026-05-05 00:08 | 28.41754 | -81.65805 | 2004 ft | 126 kts | 63° |
| 2026-05-05 00:08 | 28.42205 | -81.64956 | 2007 ft | 126 kts | 63° |
| 2026-05-05 00:08 | 28.42652 | -81.64101 | 2007 ft | 126 kts | 62° |
| 2026-05-05 00:09 | 28.43091 | -81.63234 | 2005 ft | 127 kts | 62° |
| 2026-05-05 00:09 | 28.43474 | -81.62335 | 2008 ft | 126 kts | 67° |
| 2026-05-05 00:09 | 28.43838 | -81.61433 | 2006 ft | 125 kts | 68° |
| 2026-05-05 00:09 | 28.44189 | -81.60539 | 2004 ft | 123 kts | 69° |
| 2026-05-05 00:10 | 28.44531 | -81.59639 | 2002 ft | 124 kts | 69° |
| 2026-05-05 00:10 | 28.44874 | -81.58735 | 2003 ft | 125 kts | 69° |
| 2026-05-05 00:10 | 28.45218 | -81.57828 | 2001 ft | 126 kts | 70° |
| 2026-05-05 00:10 | 28.45566 | -81.56910 | 2002 ft | 127 kts | 68° |
| 2026-05-05 00:11 | 28.45913 | -81.55994 | 2006 ft | 125 kts | 69° |
| 2026-05-05 00:11 | 28.46257 | -81.55087 | 2005 ft | 125 kts | 70° |
| 2026-05-05 00:11 | 28.46599 | -81.54184 | 2000 ft | 127 kts | 69° |
| 2026-05-05 00:11 | 28.46954 | -81.53249 | 2002 ft | 127 kts | 69° |
| 2026-05-05 00:12 | 28.47299 | -81.52341 | 2001 ft | 126 kts | 70° |
| 2026-05-05 00:12 | 28.47643 | -81.51434 | 1997 ft | 124 kts | 70° |
| 2026-05-05 00:12 | 28.47982 | -81.50540 | 2000 ft | 124 kts | 69° |
| 2026-05-05 00:12 | 28.48324 | -81.49636 | 2001 ft | 125 kts | 69° |
| 2026-05-05 00:13 | 28.48668 | -81.48731 | 1998 ft | 125 kts | 70° |
| 2026-05-05 00:13 | 28.49010 | -81.47829 | 2002 ft | 123 kts | 71° |
| 2026-05-05 00:13 | 28.49349 | -81.46934 | 2004 ft | 123 kts | 69° |
| 2026-05-05 00:13 | 28.49690 | -81.46034 | 2007 ft | 124 kts | 69° |
| 2026-05-05 00:14 | 28.50033 | -81.45128 | 2002 ft | 124 kts | 70° |
| 2026-05-05 00:14 | 28.50363 | -81.44259 | 1992 ft | 112 kts | 69° |
| 2026-05-05 00:14 | 28.50640 | -81.43535 | 1914 ft | 96 kts | 69° |
| 2026-05-05 00:14 | 28.50917 | -81.42802 | 1792 ft | 104 kts | 70° |
| 2026-05-05 00:15 | 28.51202 | -81.42053 | 1653 ft | 103 kts | 70° |
| 2026-05-05 00:15 | 28.51484 | -81.41305 | 1512 ft | 102 kts | 69° |
| 2026-05-05 00:15 | 28.51765 | -81.40567 | 1379 ft | 101 kts | 68° |
| 2026-05-05 00:15 | 28.52045 | -81.39824 | 1243 ft | 104 kts | 69° |
| 2026-05-05 00:16 | 28.52332 | -81.39067 | 1104 ft | 105 kts | 68° |
| 2026-05-05 00:16 | 28.52610 | -81.38333 | 977 ft | 95 kts | 69° |
| 2026-05-05 00:16 | 28.52856 | -81.37688 | 844 ft | 86 kts | 69° |
| 2026-05-05 00:16 | 28.53093 | -81.37068 | 735 ft | 84 kts | 71° |
| 2026-05-05 00:17 | 28.53321 | -81.36464 | 627 ft | 82 kts | 69° |
| 2026-05-05 00:17 | 28.53539 | -81.35869 | 520 ft | 81 kts | 69° |
| 2026-05-05 00:17 | 28.53780 | -81.35269 | 408 ft | 84 kts | 70° |
| 2026-05-05 00:17 | 28.54010 | -81.34648 | 306 ft | 85 kts | 69° |
| 2026-05-05 00:18 | 28.54249 | -81.34017 | 177 ft | 88 kts | 66° |
| 2026-05-05 00:18 | 28.54477 | -81.33419 | 112 ft | 65 kts | 68° |
| 2026-05-05 00:18 | 28.54605 | -81.33151 | 114 ft | 21 kts | 15° |
| 2026-05-05 00:18 | 28.54689 | -81.33156 | 113 ft | 0 kts | 352° |
| 2026-05-05 00:19 | 28.54713 | -81.33161 | 113 ft | 10 kts | 351° |
| 2026-05-05 00:19 | 28.54730 | -81.33165 | 112 ft | 0 kts | 319° |
| 2026-05-05 00:20 | 28.54727 | -81.33185 | 112 ft | 7 kts | 241° |
| 2026-05-05 00:20 | 28.54718 | -81.33245 | 112 ft | 10 kts | 264° |
| 2026-05-05 00:20 | 28.54709 | -81.33329 | 111 ft | 11 kts | 264° |
| 2026-05-05 00:20 | 28.54702 | -81.33411 | 110 ft | 10 kts | 263° |
| 2026-05-05 00:21 | 28.54694 | -81.33506 | 110 ft | 14 kts | 265° |
| 2026-05-05 00:21 | 28.54691 | -81.33610 | 111 ft | 11 kts | 290° |
| 2026-05-05 00:21 | 28.54734 | -81.33669 | 111 ft | 10 kts | 309° |
| 2026-05-05 00:21 | 28.54766 | -81.33689 | 111 ft | 3 kts | 47° |
| 2026-05-05 00:22 | 28.54795 | -81.33659 | 111 ft | 8 kts | 41° |
| 2026-05-05 00:22 | 28.54830 | -81.33624 | 112 ft | 6 kts | 41° |
| 2026-05-05 00:22 | 28.54883 | -81.33595 | 113 ft | 10 kts | 44° |
| 2026-05-05 00:22 | 28.54869 | -81.33556 | 113 ft | 7 kts | 130° |
| 2026-05-05 00:23 | 28.54849 | -81.33529 | 113 ft | 0 kts | 102° |
| 2026-05-05 00:23 | 28.54859 | -81.33514 | 112 ft | 0 kts | 43° |